Time;durP1;ratioP1;P1;durP2;ratioP2;P2;SDS_P1;SDS_P2;PMS_P1;PMS_P2;Temp;Humidity;BMP_temperature;BMP_pressure;BME280_temperature;BME280_humidity;BME280_pressure;Samples;Min_cycle;Max_cycle;Signal;HPM_P1;HPM_P2
2022/02/24 00:02:00;;;;;;;13.07;2.95;;;;;;;10.71;51.71;101630.22;4737874;29;20664;-54
2022/02/24 00:04:25;;;;;;;10.95;2.55;;;;;;;10.63;51.68;101626.53;4756341;29;20047;-53
2022/02/24 00:06:51;;;;;;;11.70;3.08;;;;;;;10.76;51.73;101621.66;4737936;29;20047;-52
2022/02/24 00:09:17;;;;;;;12.18;2.78;;;;;;;10.76;51.85;101616.44;4732050;29;20979;-53
2022/02/24 00:11:42;;;;;;;9.38;2.75;;;;;;;10.75;51.85;101603.34;4750295;29;20052;-52
2022/02/24 00:14:08;;;;;;;15.63;3.22;;;;;;;10.67;51.65;101618.84;4754932;29;20108;-55
2022/02/24 00:16:33;;;;;;;10.50;2.72;;;;;;;10.71;52.26;101618.06;4754136;29;20077;-53
2022/02/24 00:18:59;;;;;;;11.43;2.80;;;;;;;10.74;51.91;101601.59;4748202;29;20453;-55
2022/02/24 00:21:24;;;;;;;16.17;2.78;;;;;;;10.68;52.21;101596.22;4751240;29;20456;-55
2022/02/24 00:23:50;;;;;;;9.75;2.80;;;;;;;10.57;52.19;101591.63;4748250;29;20148;-53
2022/02/24 00:26:15;;;;;;;12.93;3.30;;;;;;;10.58;52.30;101582.97;4747753;29;20440;-54
2022/02/24 00:28:41;;;;;;;13.15;2.78;;;;;;;10.61;52.01;101578.69;4754485;29;20047;-53
2022/02/24 00:31:09;;;;;;;12.75;3.00;;;;;;;10.66;52.22;101579.66;4759941;29;20138;-54
2022/02/24 00:33:35;;;;;;;13.55;2.95;;;;;;;10.70;52.35;101587.59;4759345;29;20145;-55
2022/02/24 00:36:00;;;;;;;13.45;2.75;;;;;;;10.57;52.57;101590.75;4752181;29;20557;-53
2022/02/24 00:38:26;;;;;;;13.35;2.60;;;;;;;10.67;52.06;101584.94;4751675;29;20055;-51
2022/02/24 00:40:51;;;;;;;14.57;2.90;;;;;;;10.68;51.94;101583.19;4754457;29;20062;-53
2022/02/24 00:43:17;;;;;;;11.48;2.70;;;;;;;10.75;51.97;101592.91;4757533;29;20287;-54
2022/02/24 00:45:42;;;;;;;11.70;2.65;;;;;;;10.68;51.93;101584.06;4759753;29;20523;-52
2022/02/24 00:48:08;;;;;;;15.65;3.00;;;;;;;10.72;52.19;101580.72;4754785;29;20088;-53
2022/02/24 00:50:34;;;;;;;15.30;2.53;;;;;;;10.77;51.30;101581.69;4749239;29;20507;-53
2022/02/24 00:53:00;;;;;;;10.75;2.80;;;;;;;10.75;51.90;101574.66;4748957;29;20050;-50
2022/02/24 00:55:26;;;;;;;12.48;2.90;;;;;;;10.80;51.43;101566.09;4757966;29;20217;-53
2022/02/24 00:57:52;;;;;;;15.95;2.83;;;;;;;10.78;51.55;101574.75;4756066;29;20059;-54
2022/02/24 01:00:17;;;;;;;14.25;2.63;;;;;;;10.73;51.93;101569.44;4755323;29;20048;-52
2022/02/24 01:02:43;;;;;;;19.33;3.55;;;;;;;10.80;51.79;101570.44;4756655;29;20047;-53
2022/02/24 01:05:08;;;;;;;10.93;2.95;;;;;;;10.77;52.37;101565.16;4740976;29;20069;-51
2022/02/24 01:07:33;;;;;;;15.20;2.67;;;;;;;10.73;52.43;101558.13;4751908;29;20515;-51
2022/02/24 01:09:59;;;;;;;15.05;3.03;;;;;;;10.73;51.96;101556.41;4749178;29;20583;-53
2022/02/24 01:12:24;;;;;;;15.27;2.97;;;;;;;10.76;52.16;101550.34;4752135;29;20050;-51
2022/02/24 01:14:50;;;;;;;15.82;3.20;;;;;;;10.71;52.18;101532.00;4756705;29;21092;-52
2022/02/24 01:17:16;;;;;;;12.18;3.03;;;;;;;10.73;52.75;101538.13;4747756;29;21859;-56
2022/02/24 01:19:41;;;;;;;18.20;2.85;;;;;;;10.78;52.69;101538.22;4756467;29;20039;-54
2022/02/24 01:22:06;;;;;;;10.90;2.88;;;;;;;10.77;52.59;101534.75;4740484;29;20581;-53
2022/02/24 01:24:32;;;;;;;10.50;2.65;;;;;;;10.80;52.64;101531.31;4756116;29;20059;-52
2022/02/24 01:26:57;;;;;;;13.85;2.70;;;;;;;10.71;53.09;101536.31;4764645;29;20126;-53
2022/02/24 01:29:23;;;;;;;15.52;3.13;;;;;;;10.83;53.30;101526.19;4751252;29;20492;-54
2022/02/24 01:31:48;;;;;;;10.82;2.80;;;;;;;10.79;53.40;101508.72;4750073;29;20117;-51
2022/02/24 01:34:13;;;;;;;12.90;3.25;;;;;;;10.72;53.44;101501.59;4755516;29;20363;-54
2022/02/24 01:36:39;;;;;;;13.65;3.50;;;;;;;10.79;53.10;101506.97;4753508;29;20138;-55
2022/02/24 01:39:04;;;;;;;16.38;3.05;;;;;;;10.72;53.20;101509.41;4745555;29;20055;-51
2022/02/24 01:41:30;;;;;;;13.60;2.95;;;;;;;10.63;54.20;101502.25;4741958;29;20055;-51
2022/02/24 01:43:55;;;;;;;13.85;3.00;;;;;;;10.79;53.61;101493.94;4755689;29;20135;-52
2022/02/24 01:46:20;;;;;;;17.33;3.45;;;;;;;10.64;53.96;101497.91;4759134;29;20050;-53
2022/02/24 01:48:46;;;;;;;12.95;3.35;;;;;;;10.79;54.05;101485.22;4754089;29;20464;-54
2022/02/24 01:51:12;;;;;;;12.60;2.90;;;;;;;10.79;53.92;101472.19;4749632;29;20577;-52
2022/02/24 01:53:38;;;;;;;10.38;3.15;;;;;;;10.87;53.74;101471.50;4754416;29;20052;-52
2022/02/24 01:56:04;;;;;;;17.95;3.35;;;;;;;10.76;54.37;101459.94;4763645;29;20473;-56
2022/02/24 01:58:29;;;;;;;10.95;2.95;;;;;;;10.80;54.24;101464.38;4755852;29;20543;-52
2022/02/24 02:00:55;;;;;;;15.38;3.45;;;;;;;10.75;54.18;101455.56;4740211;29;20105;-52
2022/02/24 02:03:20;;;;;;;13.50;3.30;;;;;;;10.77;54.27;101458.22;4749416;29;20317;-51
2022/02/24 02:05:47;;;;;;;13.93;3.40;;;;;;;10.75;54.79;101457.31;4752425;29;20054;-53
2022/02/24 02:08:13;;;;;;;15.07;3.30;;;;;;;10.76;54.36;101448.63;4755106;29;20120;-53
2022/02/24 02:10:38;;;;;;;14.50;3.05;;;;;;;10.74;54.55;101445.97;4754525;29;20467;-53
2022/02/24 02:13:04;;;;;;;17.58;3.42;;;;;;;10.61;55.40;101440.50;4737148;29;20440;-54
2022/02/24 02:15:30;;;;;;;13.88;3.20;;;;;;;10.77;54.69;101432.16;4754111;29;20047;-54
2022/02/24 02:17:55;;;;;;;14.48;3.38;;;;;;;10.78;54.94;101428.69;4756733;29;20043;-51
2022/02/24 02:20:21;;;;;;;12.57;3.05;;;;;;;10.78;54.83;101432.19;4752199;29;21149;-53
2022/02/24 02:22:53;;;;;;;11.63;3.15;;;;;;;10.82;54.56;101433.13;4748706;29;20051;-54
2022/02/24 02:25:20;;;;;;;14.27;3.38;;;;;;;10.80;54.76;101424.38;4760495;29;20537;-52
2022/02/24 02:27:49;;;;;;;14.00;3.42;;;;;;;10.73;55.28;101423.38;4756773;29;20444;-54
2022/02/24 02:30:16;;;;;;;16.30;3.35;;;;;;;10.69;55.10;101425.88;4753339;29;20070;-55
2022/02/24 02:32:41;;;;;;;17.55;3.47;;;;;;;10.62;55.13;101414.44;4755503;29;20067;-54
2022/02/24 02:35:07;;;;;;;12.50;3.08;;;;;;;10.60;55.66;101420.47;4751579;29;20043;-53
2022/02/24 02:37:33;;;;;;;14.20;3.33;;;;;;;10.61;55.70;101412.69;4758384;29;20526;-53
2022/02/24 02:39:58;;;;;;;11.68;3.03;;;;;;;10.67;55.25;101410.22;4754888;29;20571;-54
2022/02/24 02:42:24;;;;;;;14.13;3.25;;;;;;;10.55;55.94;101409.94;4767785;29;20047;-52
2022/02/24 02:44:50;;;;;;;16.10;3.20;;;;;;;10.67;55.54;101412.81;4754529;29;20191;-51
2022/02/24 02:47:15;;;;;;;15.38;3.22;;;;;;;10.72;55.48;101412.91;4741111;29;21052;-53
2022/02/24 02:49:42;;;;;;;11.40;3.40;;;;;;;10.56;55.92;101404.75;4757069;29;20047;-54
2022/02/24 02:52:07;;;;;;;13.40;3.42;;;;;;;10.50;55.79;101401.13;4754679;29;21015;-52
2022/02/24 02:54:33;;;;;;;13.48;3.40;;;;;;;10.49;55.91;101395.03;4755568;29;20508;-53
2022/02/24 02:57:00;;;;;;;15.18;3.47;;;;;;;10.47;55.62;101393.25;4745134;29;20047;-51
2022/02/24 02:59:25;;;;;;;14.98;3.35;;;;;;;10.46;55.76;101370.63;4754592;29;20039;-54
2022/02/24 03:01:54;;;;;;;14.95;3.20;;;;;;;10.45;55.48;101366.25;4747854;29;20067;-51
2022/02/24 03:04:20;;;;;;;15.45;3.30;;;;;;;10.35;56.12;101364.31;4752856;29;20416;-54
2022/02/24 03:06:46;;;;;;;13.63;3.28;;;;;;;10.46;55.74;101361.09;4749060;29;20055;-52
2022/02/24 03:09:11;;;;;;;12.50;3.47;;;;;;;10.39;55.94;101361.78;4736610;29;20637;-57
2022/02/24 03:11:37;;;;;;;10.52;3.22;;;;;;;10.37;55.89;101357.41;4752320;29;20087;-53
2022/02/24 03:14:03;;;;;;;16.10;3.33;;;;;;;10.28;56.72;101350.25;4755628;29;20203;-52
2022/02/24 03:16:28;;;;;;;13.98;3.33;;;;;;;10.49;56.16;101342.03;4753329;29;20500;-52
2022/02/24 03:18:53;;;;;;;11.27;3.10;;;;;;;10.51;55.91;101346.41;4748260;29;20606;-52
2022/02/24 03:21:19;;;;;;;10.65;3.10;;;;;;;10.47;55.95;101339.41;4742974;29;20361;-52
2022/02/24 03:23:45;;;;;;;11.32;2.97;;;;;;;10.46;55.94;101341.97;4752404;29;20051;-52
2022/02/24 03:26:11;;;;;;;12.68;3.20;;;;;;;10.27;56.91;101330.25;4756467;29;20043;-53
2022/02/24 03:28:37;;;;;;;11.45;3.08;;;;;;;10.24;56.76;101330.22;4748923;29;20059;-53
2022/02/24 03:31:04;;;;;;;8.50;3.10;;;;;;;10.12;57.40;101328.16;4754427;29;20447;-49
2022/02/24 03:33:30;;;;;;;11.75;3.17;;;;;;;10.16;56.99;101324.81;4755331;29;20055;-54
2022/02/24 03:35:55;;;;;;;10.90;3.40;;;;;;;10.29;56.26;101327.69;4755694;29;20062;-53
2022/02/24 03:38:21;;;;;;;10.27;3.17;;;;;;;10.25;56.60;101331.94;4752659;29;20055;-51
2022/02/24 03:40:46;;;;;;;11.52;3.15;;;;;;;10.31;56.30;101326.84;4744478;29;20047;-51
2022/02/24 03:43:12;;;;;;;13.88;3.20;;;;;;;10.15;56.67;101323.03;4746876;29;20232;-51
2022/02/24 03:45:37;;;;;;;12.40;3.08;;;;;;;10.16;56.40;101324.81;4753697;29;20059;-54
2022/02/24 03:48:03;;;;;;;8.00;3.00;;;;;;;10.12;57.00;101315.13;4754306;29;20051;-54
2022/02/24 03:50:28;;;;;;;16.33;3.60;;;;;;;10.18;57.12;101316.16;4754497;29;20051;-54
2022/02/24 03:52:54;;;;;;;13.60;3.15;;;;;;;10.17;57.50;101310.06;4750185;29;20563;-51
2022/02/24 03:55:19;;;;;;;16.15;3.50;;;;;;;10.15;57.22;101306.50;4746169;29;20059;-54
2022/02/24 03:57:44;;;;;;;19.85;3.70;;;;;;;10.13;57.65;101303.84;4755058;29;20055;-51
2022/02/24 04:00:10;;;;;;;14.23;3.42;;;;;;;10.13;57.60;101302.97;4753252;29;20095;-52
2022/02/24 04:02:36;;;;;;;11.20;3.15;;;;;;;10.32;56.97;101293.88;4755463;29;20058;-53
2022/02/24 04:05:01;;;;;;;12.68;3.20;;;;;;;10.30;56.74;101283.44;4744001;29;20043;-53
2022/02/24 04:07:27;;;;;;;13.02;3.72;;;;;;;10.25;57.20;101285.03;4752968;29;20062;-54
2022/02/24 04:09:53;;;;;;;14.20;3.33;;;;;;;10.16;57.51;101282.22;4744801;29;20091;-52
2022/02/24 04:12:19;;;;;;;12.70;3.35;;;;;;;10.16;57.35;101285.75;4759158;29;20059;-53
2022/02/24 04:14:45;;;;;;;10.82;3.65;;;;;;;10.18;57.49;101290.09;4756764;29;21567;-51
2022/02/24 04:17:11;;;;;;;14.18;3.63;;;;;;;10.20;57.41;101288.41;4748804;29;20818;-51
2022/02/24 04:19:36;;;;;;;13.43;3.63;;;;;;;10.12;57.58;101285.63;4748125;29;20055;-53
2022/02/24 04:22:03;;;;;;;11.63;3.10;;;;;;;10.22;57.43;101291.91;4756382;29;20058;-55
2022/02/24 04:24:28;;;;;;;13.57;3.55;;;;;;;10.24;57.08;101277.22;4757706;29;20505;-54
2022/02/24 04:26:53;;;;;;;17.75;3.70;;;;;;;10.35;57.08;101278.31;4747155;29;20051;-52
2022/02/24 04:29:19;;;;;;;11.85;3.50;;;;;;;10.24;57.43;101266.78;4746433;29;20174;-51
2022/02/24 04:31:44;;;;;;;16.58;3.78;;;;;;;10.22;57.36;101278.91;4757129;29;20053;-52
2022/02/24 04:34:09;;;;;;;10.65;3.42;;;;;;;10.30;57.24;101273.00;4755415;29;20388;-53
2022/02/24 04:36:35;;;;;;;14.13;3.40;;;;;;;10.35;57.22;101276.59;4745911;29;20051;-54
2022/02/24 04:39:00;;;;;;;12.68;3.70;;;;;;;10.41;56.98;101279.31;4749891;29;20059;-52
2022/02/24 04:41:25;;;;;;;16.92;3.85;;;;;;;10.43;56.59;101271.53;4758820;29;20047;-50
2022/02/24 04:43:51;;;;;;;11.35;3.85;;;;;;;10.42;57.29;101269.78;4754854;29;20058;-49
2022/02/24 04:46:16;;;;;;;11.05;3.88;;;;;;;10.46;56.76;101263.75;4750779;29;20135;-54
2022/02/24 04:48:43;;;;;;;16.98;3.70;;;;;;;10.45;57.03;101254.19;4754331;29;20085;-54
2022/02/24 04:51:09;;;;;;;13.70;3.35;;;;;;;10.42;57.16;101259.34;4749644;29;20090;-53
2022/02/24 04:53:34;;;;;;;15.63;3.50;;;;;;;10.54;56.74;101260.47;4757233;29;20163;-54
2022/02/24 04:56:00;;;;;;;15.05;3.42;;;;;;;10.43;56.99;101254.13;4753837;29;20063;-54
2022/02/24 04:58:25;;;;;;;15.20;3.47;;;;;;;10.49;56.98;101248.19;4755024;29;20303;-52
2022/02/24 05:00:50;;;;;;;13.27;3.70;;;;;;;10.40;57.30;101232.38;4752901;29;20042;-55
2022/02/24 05:03:16;;;;;;;14.23;3.72;;;;;;;10.42;57.39;101238.50;4750518;29;20108;-55
2022/02/24 05:05:43;;;;;;;16.90;3.45;;;;;;;10.39;57.23;101239.28;4756598;29;20043;-54
2022/02/24 05:08:08;;;;;;;15.98;4.35;;;;;;;10.39;57.50;101217.56;4746049;29;20110;-55
2022/02/24 05:10:34;;;;;;;13.02;3.50;;;;;;;10.34;57.93;101221.81;4755321;29;20059;-53
2022/02/24 05:12:59;;;;;;;10.80;3.30;;;;;;;10.43;57.32;101229.84;4751286;29;20055;-51
2022/02/24 05:15:25;;;;;;;13.13;3.15;;;;;;;10.43;57.32;101216.81;4755829;29;20055;-54
2022/02/24 05:17:50;;;;;;;19.38;3.85;;;;;;;10.51;57.16;101220.41;4753202;29;20500;-55
2022/02/24 05:20:16;;;;;;;12.43;3.33;;;;;;;10.48;57.26;101218.66;4745819;29;20138;-55
2022/02/24 05:22:43;;;;;;;12.23;3.35;;;;;;;10.56;57.17;101218.75;4758422;29;20184;-53
2022/02/24 05:25:10;;;;;;;17.30;3.35;;;;;;;10.45;57.32;101200.31;4748409;29;20052;-52
2022/02/24 05:27:36;;;;;;;15.98;3.72;;;;;;;10.55;56.81;101185.75;4747497;29;20051;-54
2022/02/24 05:30:03;;;;;;;17.02;3.45;;;;;;;10.48;57.45;101194.31;4749748;29;20527;-53
2022/02/24 05:32:28;;;;;;;14.30;3.58;;;;;;;10.47;57.12;101184.72;4753247;29;20043;-50
2022/02/24 05:34:53;;;;;;;15.73;3.33;;;;;;;10.46;57.28;101188.16;4751482;29;20096;-51
2022/02/24 05:37:21;;;;;;;12.43;3.22;;;;;;;10.44;57.13;101177.72;4749095;29;20373;-53
2022/02/24 05:39:46;;;;;;;12.38;2.90;;;;;;;10.50;57.03;101176.94;4753151;29;20628;-54
2022/02/24 05:42:11;;;;;;;16.08;3.17;;;;;;;10.50;57.12;101172.59;4755705;29;20062;-52
2022/02/24 05:44:37;;;;;;;10.30;2.92;;;;;;;10.57;56.78;101163.16;4749320;29;20170;-51
2022/02/24 05:47:02;;;;;;;15.02;3.40;;;;;;;10.53;56.64;101162.25;4748678;29;20572;-52
2022/02/24 05:49:28;;;;;;;15.80;3.20;;;;;;;10.51;56.50;101148.31;4752113;29;20120;-52
2022/02/24 05:51:53;;;;;;;15.95;3.50;;;;;;;10.65;56.28;101155.50;4756409;29;20413;-52
2022/02/24 05:54:18;;;;;;;11.38;2.97;;;;;;;10.53;56.93;101148.34;4746712;29;20439;-51
2022/02/24 05:56:44;;;;;;;12.93;3.35;;;;;;;10.49;56.75;101141.31;4755584;29;20602;-53
2022/02/24 05:59:09;;;;;;;10.93;3.10;;;;;;;10.46;57.09;101149.06;4748900;29;20051;-53
2022/02/24 06:01:35;;;;;;;15.30;3.33;;;;;;;10.47;56.91;101136.06;4755709;29;20063;-51
2022/02/24 06:04:00;;;;;;;11.65;3.10;;;;;;;10.26;57.53;101138.28;4754524;29;20050;-52
2022/02/24 06:06:25;;;;;;;19.77;2.90;;;;;;;10.39;57.54;101131.56;4743751;29;20082;-55
2022/02/24 06:08:51;;;;;;;11.90;3.00;;;;;;;10.44;57.04;101128.19;4747708;29;20055;-52
2022/02/24 06:11:17;;;;;;;11.65;3.10;;;;;;;10.47;57.30;101125.66;4745175;29;20051;-53
2022/02/24 06:13:43;;;;;;;14.60;2.90;;;;;;;10.44;57.13;101125.56;4752102;29;20058;-55
2022/02/24 06:16:08;;;;;;;14.65;2.88;;;;;;;10.45;57.29;101116.91;4744611;29;20059;-53
2022/02/24 06:18:34;;;;;;;10.88;3.00;;;;;;;10.44;57.32;101115.16;4753544;29;20051;-53
2022/02/24 06:21:00;;;;;;;19.23;3.17;;;;;;;10.57;57.08;101111.91;4752501;29;20130;-54
2022/02/24 06:23:26;;;;;;;17.48;3.83;;;;;;;10.54;57.37;101116.22;4747885;29;20582;-53
2022/02/24 06:25:52;;;;;;;13.43;3.13;;;;;;;10.49;57.02;101110.03;4746107;29;20679;-54
2022/02/24 06:28:17;;;;;;;14.98;3.10;;;;;;;10.58;56.97;101112.78;4754458;29;20120;-53
2022/02/24 06:30:43;;;;;;;17.50;3.00;;;;;;;10.62;56.82;101118.91;4743548;29;20583;-55
2022/02/24 06:33:08;;;;;;;19.60;3.05;;;;;;;10.61;57.28;101115.47;4752818;29;20051;-54
2022/02/24 06:35:33;;;;;;;16.58;3.55;;;;;;;10.64;56.39;101106.81;4750397;29;20078;-51
2022/02/24 06:38:01;;;;;;;13.65;2.95;;;;;;;10.57;56.71;101103.22;4750926;29;20051;-53
2022/02/24 06:40:26;;;;;;;16.10;3.10;;;;;;;10.51;57.27;101087.47;4759227;29;20779;-54
2022/02/24 06:42:52;;;;;;;14.70;2.95;;;;;;;10.36;57.36;101095.03;4744951;29;20039;-54
2022/02/24 06:45:17;;;;;;;9.10;2.70;;;;;;;10.59;56.77;101088.47;4754385;29;20053;-53
2022/02/24 06:47:43;;;;;;;12.95;2.95;;;;;;;10.66;56.84;101081.63;4756649;29;20047;-54
2022/02/24 06:50:11;;;;;;;12.10;2.90;;;;;;;10.61;56.70;101089.41;4757582;29;20776;-54
2022/02/24 06:52:37;;;;;;;13.20;2.95;;;;;;;10.69;56.38;101077.34;4766983;29;20043;-54
2022/02/24 06:55:04;;;;;;;15.38;3.22;;;;;;;10.61;56.96;101080.69;4744800;29;20411;-52
2022/02/24 06:57:30;;;;;;;12.43;2.53;;;;;;;10.64;56.76;101073.78;4745765;29;20051;-55
2022/02/24 06:59:55;;;;;;;13.10;2.85;;;;;;;10.55;56.88;101074.50;4751872;29;20047;-52
2022/02/24 07:02:20;;;;;;;12.23;2.72;;;;;;;10.57;56.64;101062.38;4747396;29;20067;-54
2022/02/24 07:04:46;;;;;;;10.77;2.90;;;;;;;10.60;56.87;101045.91;4756771;29;20551;-53
2022/02/24 07:07:11;;;;;;;16.92;2.95;;;;;;;10.74;56.70;101043.50;4747359;29;20218;-54
2022/02/24 07:09:37;;;;;;;13.02;3.03;;;;;;;10.77;55.99;101047.06;4746699;29;20078;-53
2022/02/24 07:12:03;;;;;;;12.82;3.53;;;;;;;10.73;56.39;101042.66;4747212;29;20057;-53
2022/02/24 07:14:28;;;;;;;11.50;2.75;;;;;;;10.86;56.09;101043.69;4753528;29;20057;-54
2022/02/24 07:16:53;;;;;;;10.82;2.65;;;;;;;10.85;56.04;101041.97;4749804;29;20047;-53
2022/02/24 07:19:19;;;;;;;13.35;2.90;;;;;;;10.81;56.21;101042.75;4750148;29;20058;-53
2022/02/24 07:21:44;;;;;;;10.82;3.08;;;;;;;10.71;56.41;101038.25;4744992;29;20149;-55
2022/02/24 07:24:09;;;;;;;14.80;2.78;;;;;;;10.87;56.35;101035.00;4751339;29;20043;-54
2022/02/24 07:26:35;;;;;;;11.02;2.75;;;;;;;10.89;56.36;101022.88;4753966;29;20059;-51
2022/02/24 07:29:00;;;;;;;10.85;2.63;;;;;;;10.92;55.99;101025.53;4746460;29;20059;-51
2022/02/24 07:31:26;;;;;;;13.07;3.08;;;;;;;11.02;55.76;101030.03;4745666;29;20111;-52
2022/02/24 07:33:51;;;;;;;13.00;2.90;;;;;;;10.87;56.45;101017.63;4742512;29;20052;-53
2022/02/24 07:36:16;;;;;;;9.80;2.75;;;;;;;10.79;56.59;101014.06;4754182;29;20082;-54
2022/02/24 07:38:43;;;;;;;13.73;2.67;;;;;;;10.90;56.55;101004.66;4754208;29;20166;-53
2022/02/24 07:41:09;;;;;;;10.60;2.50;;;;;;;10.77;56.92;101000.13;4740737;29;20206;-53
2022/02/24 07:43:36;;;;;;;11.25;2.40;;;;;;;10.77;57.06;100989.69;4744483;29;20631;-53
2022/02/24 07:46:01;;;;;;;13.15;2.63;;;;;;;10.85;57.00;100988.06;4758582;29;20075;-50
2022/02/24 07:48:27;;;;;;;10.02;2.55;;;;;;;10.92;56.63;100997.72;4747049;29;20174;-51
2022/02/24 07:50:53;;;;;;;13.00;2.58;;;;;;;10.89;57.00;100992.47;4756140;29;20575;-54
2022/02/24 07:53:18;;;;;;;11.98;2.33;;;;;;;10.96;56.99;101001.25;4757525;29;20051;-51
2022/02/24 07:55:44;;;;;;;12.43;2.50;;;;;;;10.88;56.66;100989.81;4759170;29;20390;-51
2022/02/24 07:58:10;;;;;;;13.10;2.28;;;;;;;10.88;56.82;100987.22;4749117;29;20495;-55
2022/02/24 08:00:36;;;;;;;13.50;2.70;;;;;;;10.87;56.37;101002.00;4753203;29;20079;-52
2022/02/24 08:03:01;;;;;;;13.48;2.40;;;;;;;11.01;56.30;100989.13;4748208;29;20055;-54
2022/02/24 08:05:26;;;;;;;8.40;2.20;;;;;;;11.05;56.85;100985.72;4754752;29;20047;-51
2022/02/24 08:07:54;;;;;;;13.57;2.40;;;;;;;11.11;56.32;100990.13;4758980;29;20084;-53
2022/02/24 08:10:20;;;;;;;12.70;2.15;;;;;;;10.96;56.46;100986.47;4750946;29;20063;-53
2022/02/24 08:12:47;;;;;;;9.55;2.20;;;;;;;11.27;55.84;100990.38;4743154;29;20051;-54
2022/02/24 08:15:18;;;;;;;11.60;2.30;;;;;;;11.33;55.72;100990.44;4749525;29;20647;-53
2022/02/24 08:17:45;;;;;;;12.77;2.47;;;;;;;11.16;56.44;100980.66;4754431;29;20649;-53
2022/02/24 08:20:12;;;;;;;12.07;2.20;;;;;;;10.94;57.17;100984.69;4745695;29;20058;-55
2022/02/24 08:22:39;;;;;;;11.13;2.63;;;;;;;11.15;56.24;100971.06;4749450;29;20054;-55
2022/02/24 08:25:06;;;;;;;9.90;2.10;;;;;;;11.32;56.27;100969.53;4744435;29;20104;-53
2022/02/24 08:27:34;;;;;;;13.60;2.42;;;;;;;11.56;55.44;100958.47;4756835;29;20059;-54
2022/02/24 08:30:02;;;;;;;9.25;2.00;;;;;;;11.57;55.27;100955.03;4753375;29;20051;-54
2022/02/24 08:32:27;;;;;;;12.65;2.30;;;;;;;11.28;56.18;100949.47;4732777;29;20086;-54
2022/02/24 08:34:53;;;;;;;7.32;2.00;;;;;;;11.45;55.33;100936.63;4753824;29;20535;-54
2022/02/24 08:37:18;;;;;;;8.70;2.10;;;;;;;11.45;54.80;100941.84;4750781;29;20491;-53
2022/02/24 08:39:44;;;;;;;13.32;2.30;;;;;;;11.44;55.55;100945.28;4746428;29;20503;-54
2022/02/24 08:42:09;;;;;;;11.20;2.10;;;;;;;11.60;54.84;100934.16;4753558;29;20397;-53
2022/02/24 08:44:34;;;;;;;9.70;2.40;;;;;;;11.57;54.90;100921.06;4753694;29;20504;-53
2022/02/24 08:46:59;;;;;;;7.95;2.00;;;;;;;11.58;54.45;100902.81;4744850;29;20050;-55
2022/02/24 08:49:27;;;;;;;9.93;2.15;;;;;;;11.34;55.22;100897.34;4753311;29;20157;-52
2022/02/24 08:51:52;;;;;;;11.50;2.55;;;;;;;11.46;54.78;100891.38;4758028;29;20051;-53
2022/02/24 08:54:18;;;;;;;8.93;2.47;;;;;;;11.52;54.64;100889.72;4760537;29;20054;-51
2022/02/24 08:56:44;;;;;;;10.48;2.50;;;;;;;11.64;54.46;100884.59;4755746;29;20059;-55
2022/02/24 08:59:10;;;;;;;11.25;2.30;;;;;;;11.56;54.72;100875.81;4748237;29;20434;-54
2022/02/24 09:01:35;;;;;;;13.15;2.53;;;;;;;11.70;55.23;100868.09;4744509;29;20054;-55
2022/02/24 09:04:01;;;;;;;7.65;2.40;;;;;;;11.70;54.43;100865.50;4749995;29;20527;-54
2022/02/24 09:06:26;;;;;;;8.70;2.10;;;;;;;11.82;54.34;100855.19;4755925;29;20059;-51
2022/02/24 09:08:52;;;;;;;13.30;2.60;;;;;;;12.05;53.91;100850.13;4753623;29;20047;-54
2022/02/24 09:11:18;;;;;;;11.50;2.58;;;;;;;11.99;53.66;100848.34;4752120;29;20136;-54
2022/02/24 09:13:44;;;;;;;15.45;2.67;;;;;;;12.14;53.99;100843.19;4756490;29;20122;-50
2022/02/24 09:16:09;;;;;;;9.82;2.42;;;;;;;12.44;52.79;100821.59;4746026;29;20043;-55
2022/02/24 09:18:36;;;;;;;8.95;2.35;;;;;;;12.67;52.25;100826.94;4755482;29;20047;-51
2022/02/24 09:21:12;;;;;;;8.40;2.40;;;;;;;12.50;51.72;100829.47;4744210;29;20039;-52
2022/02/24 09:23:37;;;;;;;15.50;2.60;;;;;;;12.18;52.70;100815.38;4749288;29;20047;-54
2022/02/24 09:26:02;;;;;;;12.70;2.28;;;;;;;12.44;52.55;100810.28;4756248;29;20577;-53
2022/02/24 09:28:28;;;;;;;17.20;3.00;;;;;;;12.30;52.99;100796.25;4755145;29;20051;-54
2022/02/24 09:30:54;;;;;;;12.65;2.80;;;;;;;12.50;52.44;100784.16;4750025;29;20168;-53
2022/02/24 09:33:20;;;;;;;10.32;2.78;;;;;;;12.59;52.30;100773.72;4750411;29;20138;-54
2022/02/24 09:35:45;;;;;;;10.57;3.00;;;;;;;12.67;51.74;100773.75;4761562;29;20080;-54
2022/02/24 09:38:10;;;;;;;12.45;2.92;;;;;;;12.58;52.14;100765.00;4756110;29;20126;-52
2022/02/24 09:40:36;;;;;;;10.93;2.72;;;;;;;12.65;52.22;100763.28;4754076;29;20056;-53
2022/02/24 09:43:03;;;;;;;9.43;2.58;;;;;;;12.76;51.93;100764.19;4749819;29;20047;-51
2022/02/24 09:45:29;;;;;;;17.52;2.80;;;;;;;12.66;51.97;100757.19;4756640;29;20811;-51
2022/02/24 09:47:55;;;;;;;10.05;2.80;;;;;;;12.97;51.74;100743.31;4756258;29;20043;-55
2022/02/24 09:50:23;;;;;;;12.57;2.97;;;;;;;12.75;51.56;100717.97;4755742;29;20059;-53
2022/02/24 09:52:49;;;;;;;10.07;2.70;;;;;;;12.95;51.72;100725.84;4746060;29;20418;-54
2022/02/24 09:55:15;;;;;;;11.82;3.20;;;;;;;13.09;51.41;100742.44;4746872;29;20044;-53
2022/02/24 09:57:40;;;;;;;11.63;3.20;;;;;;;13.11;51.12;100748.56;4755440;29;20124;-52
2022/02/24 10:00:07;;;;;;;10.50;3.03;;;;;;;13.19;51.18;100723.28;4755592;29;20561;-54
2022/02/24 10:02:32;;;;;;;11.27;3.00;;;;;;;13.29;50.61;100726.78;4755279;29;20046;-54
2022/02/24 10:05:11;;;;;;;10.77;3.05;;;;;;;13.28;50.35;100714.56;4753487;29;20055;-54
2022/02/24 10:07:38;;;;;;;10.13;2.80;;;;;;;12.95;51.23;100710.16;4752816;29;20055;-53
2022/02/24 10:10:31;;;;;;;13.63;3.40;;;;;;;13.08;50.81;100708.41;4755836;29;20055;-55
2022/02/24 10:13:12;;;;;;;13.70;3.50;;;;;;;12.93;51.88;100709.25;4743309;29;20083;-54
2022/02/24 10:15:52;;;;;;;10.18;3.10;;;;;;;13.07;51.37;100681.38;4754405;29;20055;-51
2022/02/24 10:18:19;;;;;;;15.50;3.33;;;;;;;12.98;51.67;100677.03;4757054;29;20877;-51
2022/02/24 10:21:05;;;;;;;11.20;3.25;;;;;;;13.34;51.36;100683.16;4754897;29;20081;-55
2022/02/24 10:23:33;;;;;;;12.68;3.50;;;;;;;13.18;50.79;100677.03;4746154;29;20722;-50
2022/02/24 10:26:07;;;;;;;10.65;3.42;;;;;;;13.32;50.97;100664.81;4754857;29;20468;-50
2022/02/24 10:28:48;;;;;;;16.02;3.58;;;;;;;13.08;51.63;100683.13;4753117;29;20393;-51
2022/02/24 10:31:40;;;;;;;13.63;3.63;;;;;;;13.09;51.52;100676.16;4746252;29;20281;-50
2022/02/24 10:34:06;;;;;;;15.75;3.30;;;;;;;13.12;51.28;100686.59;4756004;29;20059;-54
2022/02/24 10:36:36;;;;;;;11.82;3.40;;;;;;;12.97;51.50;100684.88;4748353;29;20500;-52
2022/02/24 10:39:13;;;;;;;13.23;3.50;;;;;;;12.66;52.30;100668.25;4745619;29;20051;-54
2022/02/24 10:41:44;;;;;;;11.38;3.40;;;;;;;12.51;52.65;100650.78;4754129;29;20474;-51
2022/02/24 10:44:19;;;;;;;10.45;3.40;;;;;;;12.80;52.65;100663.94;4747312;29;20759;-53
2022/02/24 10:47:13;;;;;;;12.43;3.67;;;;;;;12.76;52.84;100641.25;4757875;29;20055;-54
2022/02/24 10:49:43;;;;;;;12.37;4.00;;;;;;;13.00;52.28;100637.75;4751116;29;20130;-54
2022/02/24 10:52:08;;;;;;;15.32;3.20;;;;;;;13.06;52.29;100645.59;4747456;29;20055;-54
2022/02/24 10:54:34;;;;;;;10.85;3.35;;;;;;;13.07;52.24;100638.63;4751277;29;20051;-54
2022/02/24 10:57:14;;;;;;;17.08;3.78;;;;;;;13.08;52.76;100632.53;4747956;29;20104;-55
2022/02/24 10:59:40;;;;;;;15.65;3.90;;;;;;;12.92;52.53;100619.47;4750164;29;20058;-53
2022/02/24 11:02:05;;;;;;;12.15;3.30;;;;;;;12.92;52.34;100623.81;4753438;29;20047;-53
2022/02/24 11:04:31;;;;;;;15.85;3.58;;;;;;;13.06;52.05;100618.56;4756386;29;20077;-53
2022/02/24 11:06:57;;;;;;;12.60;3.38;;;;;;;13.27;51.75;100606.34;4741741;29;20051;-53
2022/02/24 11:09:22;;;;;;;13.43;3.60;;;;;;;13.30;51.28;100597.59;4748694;29;20074;-54
2022/02/24 11:11:49;;;;;;;11.15;3.70;;;;;;;13.28;51.67;100600.25;4754612;29;20182;-52
2022/02/24 11:14:15;;;;;;;12.27;3.72;;;;;;;12.85;52.86;100591.53;4754286;29;20043;-52